createdAt,value
2022-07-26T00:00:14.478Z,99.90
2022-07-26T00:02:47.784Z,99.90
2022-07-26T00:05:17.309Z,99.90
2022-07-26T00:07:45.476Z,99.90
2022-07-26T00:10:13.590Z,99.90
2022-07-26T00:12:40.782Z,99.90
2022-07-26T00:15:10.757Z,99.90
2022-07-26T00:17:38.686Z,99.90
2022-07-26T00:20:06.436Z,99.90
2022-07-26T00:22:36.272Z,99.90
2022-07-26T00:25:09.569Z,99.90
2022-07-26T00:27:37.534Z,99.90
2022-07-26T00:30:07.769Z,99.90
2022-07-26T00:32:35.134Z,99.90
2022-07-26T00:35:02.384Z,99.90
2022-07-26T00:37:29.472Z,99.90
2022-07-26T00:39:56.747Z,99.90
2022-07-26T00:42:24.155Z,99.90
2022-07-26T00:44:51.962Z,99.90
2022-07-26T00:47:19.418Z,99.90
2022-07-26T00:49:46.657Z,99.90
2022-07-26T00:52:14.526Z,99.90
2022-07-26T00:54:45.760Z,99.90
2022-07-26T00:57:16.358Z,99.90
2022-07-26T00:59:43.587Z,99.90
2022-07-26T01:02:11.004Z,99.90
2022-07-26T01:04:38.516Z,99.90
2022-07-26T01:07:14.684Z,99.90
2022-07-26T01:09:44.025Z,99.90
2022-07-26T01:12:11.277Z,99.90
2022-07-26T01:14:38.352Z,99.90
2022-07-26T01:17:05.718Z,99.90
2022-07-26T01:19:33.059Z,99.90
2022-07-26T01:22:00.339Z,99.90
2022-07-26T01:24:28.383Z,99.90
2022-07-26T01:26:56.966Z,99.90
2022-07-26T01:29:34.686Z,99.90
2022-07-26T01:32:05.190Z,99.90
2022-07-26T01:34:32.754Z,99.90
2022-07-26T01:37:00.378Z,99.90
2022-07-26T01:39:27.540Z,99.90
2022-07-26T01:41:56.984Z,99.90
2022-07-26T01:44:24.382Z,99.90
2022-07-26T01:46:51.602Z,99.90
2022-07-26T01:49:18.845Z,99.90
2022-07-26T01:51:45.975Z,99.90
2022-07-26T01:54:13.342Z,99.90
2022-07-26T01:56:40.528Z,99.90
2022-07-26T01:59:07.877Z,99.90
2022-07-26T02:01:39.637Z,99.90
2022-07-26T02:04:08.534Z,99.90
2022-07-26T02:06:37.333Z,99.90
2022-07-26T02:09:07.485Z,99.90
2022-07-26T02:11:34.883Z,99.90
2022-07-26T02:14:03.425Z,99.90
2022-07-26T02:16:30.479Z,99.90
2022-07-26T02:18:57.971Z,99.90
2022-07-26T02:21:25.095Z,99.90
2022-07-26T02:23:52.196Z,99.90
2022-07-26T02:26:19.279Z,99.90
2022-07-26T02:28:46.944Z,99.90
2022-07-26T02:31:15.454Z,99.90
2022-07-26T02:33:43.139Z,99.90
2022-07-26T02:36:10.386Z,99.90
2022-07-26T02:38:37.680Z,99.90
2022-07-26T02:41:06.454Z,99.90
2022-07-26T02:43:33.774Z,99.90
2022-07-26T02:46:01.664Z,99.90
2022-07-26T02:48:31.904Z,99.90
2022-07-26T02:50:59.290Z,99.90
2022-07-26T02:53:26.455Z,99.90
2022-07-26T02:55:53.483Z,99.90
2022-07-26T02:58:21.866Z,99.90
2022-07-26T03:00:49.211Z,99.90
2022-07-26T03:03:16.506Z,99.90
2022-07-26T03:05:43.669Z,99.90
2022-07-26T03:08:10.866Z,99.90
2022-07-26T03:10:39.055Z,99.90
2022-07-26T03:13:06.291Z,99.90
2022-07-26T03:15:33.381Z,99.90
2022-07-26T03:18:00.495Z,99.90
2022-07-26T03:20:27.854Z,99.90
2022-07-26T03:22:54.938Z,99.90
2022-07-26T03:25:22.040Z,99.90
2022-07-26T03:27:49.265Z,99.90
2022-07-26T03:30:16.576Z,99.90
2022-07-26T03:32:52.265Z,99.90
2022-07-26T03:35:19.320Z,99.90
2022-07-26T03:37:46.757Z,99.90
2022-07-26T03:40:16.159Z,99.90
2022-07-26T03:42:44.223Z,99.90
2022-07-26T03:45:13.116Z,99.90
2022-07-26T03:47:40.297Z,99.90
2022-07-26T03:50:08.578Z,99.90
2022-07-26T03:52:36.057Z,99.90
2022-07-26T03:55:23.275Z,99.90
2022-07-26T03:57:50.396Z,99.90
2022-07-26T04:00:17.753Z,99.90
2022-07-26T04:02:45.294Z,99.90
2022-07-26T04:05:12.708Z,99.90
2022-07-26T04:07:52.823Z,99.90
2022-07-26T04:10:22.049Z,99.90
2022-07-26T04:12:49.999Z,99.90
2022-07-26T04:15:19.226Z,99.90
2022-07-26T04:17:48.558Z,99.90
2022-07-26T04:20:16.941Z,99.90
2022-07-26T04:22:45.191Z,99.90
2022-07-26T04:25:12.583Z,99.90
2022-07-26T04:27:39.798Z,99.90
2022-07-26T04:30:13.975Z,99.90
2022-07-26T04:32:42.329Z,99.90
2022-07-26T04:35:10.005Z,99.90
2022-07-26T04:37:41.633Z,99.90
2022-07-26T04:40:10.518Z,99.90
2022-07-26T04:42:39.312Z,99.90
2022-07-26T04:45:08.524Z,99.90
2022-07-26T04:47:36.662Z,99.90
2022-07-26T04:50:04.929Z,99.90
2022-07-26T04:52:32.677Z,99.90
2022-07-26T04:55:01.067Z,99.90
2022-07-26T04:57:28.381Z,99.90
2022-07-26T05:00:16.748Z,99.90
2022-07-26T05:02:43.057Z,99.90
2022-07-26T05:05:10.215Z,99.90
2022-07-26T05:07:49.161Z,99.90
2022-07-26T05:10:17.935Z,99.90
2022-07-26T05:12:46.814Z,99.90
2022-07-26T05:15:14.616Z,99.90
2022-07-26T05:17:43.284Z,99.90
2022-07-26T05:20:12.512Z,99.90
2022-07-26T05:22:40.519Z,99.90
2022-07-26T05:25:08.995Z,99.90
2022-07-26T05:27:36.458Z,99.90
2022-07-26T05:30:04.124Z,99.90
2022-07-26T05:32:31.423Z,99.90
2022-07-26T05:34:58.696Z,99.90
2022-07-26T05:37:26.164Z,99.90
2022-07-26T05:39:53.393Z,99.90
2022-07-26T05:42:20.716Z,99.90
2022-07-26T05:44:47.833Z,99.90
2022-07-26T05:47:15.369Z,99.90
2022-07-26T05:49:42.450Z,99.90
2022-07-26T05:52:09.800Z,99.90
2022-07-26T05:54:36.944Z,99.90
2022-07-26T05:57:04.830Z,99.90
2022-07-26T05:59:32.712Z,99.90
2022-07-26T06:01:59.807Z,99.90
2022-07-26T06:04:28.971Z,99.90
2022-07-26T06:06:56.158Z,99.90
2022-07-26T06:09:27.191Z,99.90
2022-07-26T06:11:54.636Z,99.90
2022-07-26T06:14:22.340Z,99.90
2022-07-26T06:16:50.129Z,99.90
2022-07-26T06:19:17.318Z,99.90
2022-07-26T06:21:46.254Z,99.90
2022-07-26T06:24:13.924Z,99.90
2022-07-26T06:26:41.141Z,99.90
2022-07-26T06:29:08.501Z,99.90
2022-07-26T06:31:35.601Z,99.90
2022-07-26T06:34:02.800Z,99.90
2022-07-26T06:36:31.135Z,99.90
2022-07-26T06:38:58.673Z,99.90
2022-07-26T06:41:26.043Z,99.90
2022-07-26T06:43:53.637Z,99.90
2022-07-26T06:46:21.439Z,99.90
2022-07-26T06:48:52.701Z,99.90
2022-07-26T06:51:20.294Z,99.90
2022-07-26T06:53:47.386Z,99.90
2022-07-26T06:56:15.204Z,99.90
2022-07-26T06:58:43.175Z,99.90
2022-07-26T07:01:10.385Z,99.90
2022-07-26T07:03:37.585Z,99.90
2022-07-26T07:06:04.751Z,99.90
2022-07-26T07:08:31.910Z,99.90
2022-07-26T07:10:59.116Z,99.90
2022-07-26T07:13:26.441Z,99.90
2022-07-26T07:15:53.771Z,99.90
2022-07-26T07:18:21.572Z,99.90
2022-07-26T07:20:48.694Z,99.90
2022-07-26T07:23:15.779Z,99.80
2022-07-26T07:25:44.608Z,99.80
2022-07-26T07:28:12.271Z,99.40
2022-07-26T07:30:39.382Z,99.40
2022-07-26T07:33:09.522Z,99.20
2022-07-26T07:35:50.514Z,99.20
2022-07-26T07:38:17.822Z,99.20
2022-07-26T07:40:44.919Z,99.00
2022-07-26T07:43:12.028Z,98.70
2022-07-26T07:45:39.195Z,99.00
2022-07-26T07:48:06.595Z,98.00
2022-07-26T07:50:33.762Z,98.10
2022-07-26T07:53:02.187Z,98.10
2022-07-26T07:55:40.398Z,98.20
2022-07-26T07:58:08.823Z,98.30
2022-07-26T08:00:35.939Z,97.60
2022-07-26T08:03:04.469Z,97.60
2022-07-26T08:05:31.657Z,97.10
2022-07-26T08:07:59.226Z,97.50
2022-07-26T08:10:27.065Z,97.20
2022-07-26T08:12:54.185Z,97.00
2022-07-26T08:15:23.552Z,97.10
2022-07-26T08:17:53.777Z,97.20
2022-07-26T08:20:23.506Z,97.40
2022-07-26T08:22:52.367Z,97.00
2022-07-26T08:25:20.161Z,96.80
2022-07-26T08:28:02.590Z,96.90
2022-07-26T08:30:31.236Z,97.10
2022-07-26T08:32:58.893Z,96.60
2022-07-26T08:35:26.376Z,96.60
2022-07-26T08:37:53.461Z,96.50
2022-07-26T08:40:21.078Z,96.60
2022-07-26T08:42:56.155Z,96.50
2022-07-26T08:45:29.753Z,96.10
2022-07-26T08:48:16.746Z,96.20
2022-07-26T08:50:44.935Z,96.50
2022-07-26T08:53:13.338Z,96.10
2022-07-26T08:58:27.803Z,96.50
2022-07-26T09:01:06.151Z,95.80
2022-07-26T09:03:38.085Z,96.00
2022-07-26T09:06:15.416Z,95.90
2022-07-26T09:08:43.791Z,95.90
2022-07-26T09:11:32.783Z,95.70
2022-07-26T09:14:06.699Z,95.70
2022-07-26T09:16:38.842Z,95.70
2022-07-26T09:19:23.796Z,95.90
2022-07-26T09:21:51.970Z,96.00
2022-07-26T09:24:47.720Z,95.70
2022-07-26T09:27:17.921Z,95.50
2022-07-26T09:29:50.589Z,95.60
2022-07-26T09:32:18.914Z,95.30
2022-07-26T09:34:58.735Z,94.40
2022-07-26T09:37:36.900Z,94.60
2022-07-26T09:40:08.289Z,95.10
2022-07-26T09:42:35.471Z,94.70
2022-07-26T09:45:03.973Z,94.70
2022-07-26T09:47:39.598Z,94.50
2022-07-26T09:50:31.309Z,94.50
2022-07-26T09:53:12.926Z,94.60
2022-07-26T09:55:46.132Z,94.80
2022-07-26T09:58:14.635Z,94.90
2022-07-26T10:00:42.587Z,95.00
2022-07-26T10:03:10.133Z,95.10
2022-07-26T10:05:38.069Z,95.10
2022-07-26T10:08:05.935Z,95.30
2022-07-26T10:10:38.002Z,95.30
2022-07-26T10:13:07.207Z,95.70
2022-07-26T10:15:41.294Z,95.80
2022-07-26T10:18:16.663Z,95.60
2022-07-26T10:20:50.991Z,96.00
2022-07-26T10:23:39.108Z,96.20
2022-07-26T10:26:09.863Z,97.00
2022-07-26T10:28:38.884Z,97.20
2022-07-26T10:31:21.501Z,97.30
2022-07-26T10:33:50.602Z,97.30
2022-07-26T10:36:30.076Z,97.20
2022-07-26T10:39:07.853Z,97.40
2022-07-26T10:41:39.594Z,97.60
2022-07-26T10:44:16.463Z,97.80
2022-07-26T10:46:58.101Z,98.10
2022-07-26T10:49:36.403Z,98.40
2022-07-26T10:52:12.707Z,98.70
2022-07-26T10:54:58.248Z,98.70
2022-07-26T10:57:28.009Z,99.00
2022-07-26T10:59:59.478Z,98.90
2022-07-26T11:02:32.677Z,99.10
2022-07-26T11:05:12.812Z,98.80
2022-07-26T11:08:10.995Z,98.60
2022-07-26T11:10:41.878Z,98.60
2022-07-26T11:13:16.617Z,98.60
2022-07-26T11:15:49.339Z,98.30
2022-07-26T11:18:25.240Z,98.40
2022-07-26T11:20:57.500Z,98.00
2022-07-26T11:23:27.562Z,97.60
2022-07-26T11:26:27.190Z,97.50
2022-07-26T11:29:06.138Z,97.00
2022-07-26T11:31:51.155Z,97.00
2022-07-26T11:34:29.460Z,97.10
2022-07-26T11:36:58.505Z,97.50
2022-07-26T11:39:31.356Z,97.10
2022-07-26T11:42:06.719Z,96.90
2022-07-26T11:44:34.458Z,96.60
2022-07-26T11:47:19.137Z,96.40
2022-07-26T11:49:51.845Z,96.80
2022-07-26T11:52:34.052Z,96.80
2022-07-26T11:55:01.240Z,96.70
2022-07-26T11:57:30.539Z,96.80
2022-07-26T11:59:59.782Z,96.70
2022-07-26T12:02:28.148Z,96.50
2022-07-26T12:05:18.848Z,96.60
2022-07-26T12:08:00.856Z,96.00
2022-07-26T12:10:27.898Z,95.80
2022-07-26T12:13:15.987Z,96.00
2022-07-26T12:15:52.251Z,96.20
2022-07-26T12:18:30.949Z,96.20
2022-07-26T12:21:06.708Z,96.30
2022-07-26T12:23:48.823Z,96.40
2022-07-26T12:26:27.449Z,95.80
2022-07-26T12:28:55.839Z,95.10
2022-07-26T12:31:31.326Z,95.30
2022-07-26T12:33:59.082Z,95.70
2022-07-26T12:36:27.687Z,95.50
2022-07-26T12:38:57.945Z,95.70
2022-07-26T12:41:36.198Z,95.80
2022-07-26T12:44:05.203Z,95.60
2022-07-26T12:46:34.705Z,95.50
2022-07-26T12:49:02.163Z,95.40
2022-07-26T12:51:29.333Z,95.40
2022-07-26T12:53:56.438Z,95.50
2022-07-26T12:56:23.625Z,95.80
2022-07-26T12:58:50.687Z,95.70
2022-07-26T13:01:17.797Z,95.90
2022-07-26T13:03:45.053Z,95.70
2022-07-26T13:06:12.934Z,95.60
2022-07-26T13:08:40.692Z,95.60
2022-07-26T13:11:07.801Z,95.10
2022-07-26T13:13:35.010Z,95.30
2022-07-26T13:16:02.091Z,95.00
2022-07-26T13:18:29.401Z,95.30
2022-07-26T13:20:57.227Z,95.50
2022-07-26T13:23:24.327Z,95.20
2022-07-26T13:25:54.047Z,95.00
2022-07-26T13:28:21.749Z,95.00
2022-07-26T13:30:48.898Z,95.00
2022-07-26T13:33:16.887Z,94.90
2022-07-26T13:35:43.936Z,95.00
2022-07-26T13:38:11.237Z,95.10
2022-07-26T13:40:38.714Z,95.30
2022-07-26T13:43:05.780Z,95.50
2022-07-26T13:45:32.841Z,95.50
2022-07-26T13:48:00.196Z,95.50
2022-07-26T13:50:28.512Z,95.20
2022-07-26T13:52:58.847Z,95.10
2022-07-26T13:55:26.020Z,94.90
2022-07-26T13:57:56.582Z,94.80
2022-07-26T14:00:26.420Z,94.80
2022-07-26T14:02:54.532Z,95.00
2022-07-26T14:05:21.744Z,94.80
2022-07-26T14:07:49.019Z,94.60
2022-07-26T14:10:16.378Z,94.40
2022-07-26T14:12:43.649Z,94.50
2022-07-26T14:15:15.120Z,94.40
2022-07-26T14:17:47.416Z,94.60
2022-07-26T14:20:17.352Z,94.40
2022-07-26T14:22:45.031Z,93.80
2022-07-26T14:25:12.497Z,93.80
2022-07-26T14:27:39.728Z,93.90
2022-07-26T14:30:07.709Z,94.10
2022-07-26T14:32:34.849Z,94.10
2022-07-26T14:35:02.124Z,94.30
2022-07-26T14:37:43.504Z,94.60
2022-07-26T14:40:17.101Z,94.00
2022-07-26T14:42:45.771Z,94.20
2022-07-26T14:45:13.662Z,94.30
2022-07-26T14:47:41.329Z,94.40
2022-07-26T14:50:10.297Z,94.40
2022-07-26T14:52:46.585Z,94.60
2022-07-26T14:55:14.797Z,94.70
2022-07-26T14:57:42.309Z,94.70
2022-07-26T15:00:15.942Z,94.30
2022-07-26T15:02:46.010Z,94.40
2022-07-26T15:05:14.367Z,94.40
2022-07-26T15:07:42.222Z,94.40
2022-07-26T15:10:12.115Z,94.30
2022-07-26T15:12:40.066Z,94.50
2022-07-26T15:15:08.826Z,94.50
2022-07-26T15:17:36.442Z,94.40
2022-07-26T15:20:05.277Z,93.90
2022-07-26T15:22:32.422Z,94.30
2022-07-26T15:24:59.479Z,94.30
2022-07-26T15:27:26.653Z,94.30
2022-07-26T15:29:56.193Z,94.30
2022-07-26T15:32:25.484Z,94.30
2022-07-26T15:34:52.594Z,94.10
2022-07-26T15:37:19.946Z,94.20
2022-07-26T15:39:47.028Z,93.80
2022-07-26T15:42:16.032Z,93.70
2022-07-26T15:44:43.259Z,93.20
2022-07-26T15:47:10.913Z,93.20
2022-07-26T15:49:40.600Z,93.40
2022-07-26T15:52:11.636Z,93.60
2022-07-26T15:54:40.893Z,93.70
2022-07-26T15:57:08.240Z,93.60
2022-07-26T15:59:35.744Z,93.50
2022-07-26T16:02:05.639Z,93.10
2022-07-26T16:04:32.742Z,93.10
2022-07-26T16:06:59.892Z,93.10
2022-07-26T16:09:27.007Z,93.10
2022-07-26T16:11:54.238Z,93.00
2022-07-26T16:14:21.453Z,93.10
2022-07-26T16:16:48.598Z,93.10
2022-07-26T16:19:16.043Z,92.90
2022-07-26T16:21:43.819Z,92.90
2022-07-26T16:24:10.935Z,93.10
2022-07-26T16:26:38.062Z,93.60
2022-07-26T16:29:06.126Z,93.70
2022-07-26T16:31:33.505Z,93.90
2022-07-26T16:34:01.065Z,93.50
2022-07-26T16:36:28.739Z,93.20
2022-07-26T16:38:55.786Z,93.00
2022-07-26T16:41:22.869Z,93.20
2022-07-26T16:43:50.082Z,93.50
2022-07-26T16:46:17.644Z,93.50
2022-07-26T16:48:45.153Z,93.90
2022-07-26T16:51:13.855Z,93.60
2022-07-26T16:53:41.467Z,93.70
2022-07-26T16:56:09.075Z,93.20
2022-07-26T16:58:37.696Z,93.30
2022-07-26T17:01:04.855Z,93.10
2022-07-26T17:03:32.053Z,93.00
2022-07-26T17:06:04.292Z,93.00
2022-07-26T17:08:33.605Z,93.10
2022-07-26T17:11:01.007Z,92.90
2022-07-26T17:13:28.093Z,93.40
2022-07-26T17:15:55.198Z,93.30
2022-07-26T17:18:22.541Z,93.20
2022-07-26T17:20:49.766Z,93.30
2022-07-26T17:23:18.725Z,93.30
2022-07-26T17:25:46.623Z,94.10
2022-07-26T17:28:14.132Z,93.80
2022-07-26T17:30:41.260Z,93.80
2022-07-26T17:33:08.547Z,93.90
2022-07-26T17:35:35.657Z,94.10
2022-07-26T17:38:02.723Z,94.00
2022-07-26T17:40:31.871Z,93.10
2022-07-26T17:42:59.562Z,92.80
2022-07-26T17:45:26.649Z,92.90
2022-07-26T17:47:53.939Z,93.00
2022-07-26T17:50:37.788Z,93.20
2022-07-26T17:53:06.069Z,93.30
2022-07-26T17:55:33.187Z,94.20
2022-07-26T17:58:00.249Z,94.10
2022-07-26T18:00:28.856Z,93.80
2022-07-26T18:02:56.966Z,92.80
2022-07-26T18:05:30.124Z,91.00
2022-07-26T18:07:59.997Z,90.20
2022-07-26T18:10:28.327Z,90.00
2022-07-26T18:12:55.969Z,90.10
2022-07-26T18:15:23.126Z,89.00
2022-07-26T18:17:50.216Z,87.20
2022-07-26T18:20:17.325Z,85.60
2022-07-26T18:22:45.864Z,84.40
2022-07-26T18:25:17.478Z,84.70
2022-07-26T18:27:44.522Z,86.80
2022-07-26T18:30:11.810Z,88.00
2022-07-26T18:32:38.891Z,89.60
2022-07-26T18:35:06.603Z,90.00
2022-07-26T18:37:33.931Z,90.50
2022-07-26T18:40:01.140Z,90.90
2022-07-26T18:42:28.464Z,91.40
2022-07-26T18:44:55.811Z,91.70
2022-07-26T18:47:22.934Z,92.10
2022-07-26T18:49:50.393Z,92.50
2022-07-26T18:52:31.841Z,92.70
2022-07-26T18:55:06.923Z,92.90
2022-07-26T18:57:35.638Z,93.10
2022-07-26T19:00:10.478Z,93.30
2022-07-26T19:02:37.666Z,93.60
2022-07-26T19:05:05.958Z,93.80
2022-07-26T19:07:33.128Z,94.00
2022-07-26T19:10:00.355Z,94.20
2022-07-26T19:12:28.541Z,94.50
2022-07-26T19:14:56.096Z,94.60
2022-07-26T19:17:23.414Z,94.80
2022-07-26T19:19:50.568Z,94.90
2022-07-26T19:22:17.683Z,95.40
2022-07-26T19:24:44.879Z,95.20
2022-07-26T19:27:12.324Z,95.40
2022-07-26T19:29:40.949Z,95.50
2022-07-26T19:32:08.473Z,95.60
2022-07-26T19:34:35.782Z,95.70
2022-07-26T19:37:03.529Z,95.90
2022-07-26T19:39:30.828Z,96.00
2022-07-26T19:41:58.145Z,96.10
2022-07-26T19:44:25.321Z,96.20
2022-07-26T19:46:57.301Z,96.30
2022-07-26T19:49:25.088Z,96.40
2022-07-26T19:51:52.418Z,96.50
2022-07-26T19:54:19.588Z,96.60
2022-07-26T19:56:46.698Z,96.70
2022-07-26T19:59:18.019Z,96.80
2022-07-26T20:01:50.062Z,97.00
2022-07-26T20:04:17.444Z,97.00
2022-07-26T20:06:44.495Z,97.10
2022-07-26T20:09:11.844Z,97.10
2022-07-26T20:11:39.185Z,97.20
2022-07-26T20:14:06.258Z,97.30
2022-07-26T20:16:33.438Z,97.40
2022-07-26T20:19:01.023Z,97.50
2022-07-26T20:21:28.101Z,97.50
2022-07-26T20:23:55.199Z,97.50
2022-07-26T20:26:23.197Z,97.60
2022-07-26T20:28:51.110Z,97.60
2022-07-26T20:31:18.213Z,97.70
2022-07-26T20:33:45.372Z,97.80
2022-07-26T20:36:12.480Z,98.00
2022-07-26T20:38:39.681Z,98.00
2022-07-26T20:41:07.034Z,98.10
2022-07-26T20:43:34.615Z,98.20
2022-07-26T20:46:02.246Z,98.20
2022-07-26T20:48:29.678Z,98.30
2022-07-26T20:50:56.741Z,98.40
2022-07-26T20:53:23.788Z,98.40
2022-07-26T20:55:50.976Z,98.50
2022-07-26T20:58:18.277Z,98.60
2022-07-26T21:00:45.337Z,98.60
2022-07-26T21:03:13.964Z,98.70
2022-07-26T21:05:41.082Z,98.70
2022-07-26T21:08:08.173Z,98.80
2022-07-26T21:10:35.401Z,98.90
2022-07-26T21:13:02.712Z,98.90
2022-07-26T21:15:30.415Z,99.00
2022-07-26T21:17:58.323Z,99.00
2022-07-26T21:20:25.686Z,99.00
2022-07-26T21:22:52.761Z,99.10
2022-07-26T21:25:20.036Z,99.20
2022-07-26T21:27:47.138Z,99.20
2022-07-26T21:30:14.353Z,99.20
2022-07-26T21:32:41.449Z,99.30
2022-07-26T21:35:08.644Z,99.30
2022-07-26T21:37:35.691Z,99.30
2022-07-26T21:40:03.177Z,99.40
2022-07-26T21:42:30.245Z,99.40
2022-07-26T21:44:57.265Z,99.50
2022-07-26T21:47:24.376Z,99.50
2022-07-26T21:49:51.405Z,99.60
2022-07-26T21:52:18.471Z,99.60
2022-07-26T21:54:45.853Z,99.60
2022-07-26T21:57:12.945Z,99.60
2022-07-26T21:59:40.036Z,99.70
2022-07-26T22:02:07.718Z,99.70
2022-07-26T22:04:35.438Z,99.70
2022-07-26T22:07:02.774Z,99.70
2022-07-26T22:09:33.886Z,99.80
2022-07-26T22:12:01.283Z,99.80
2022-07-26T22:14:28.562Z,99.90
2022-07-26T22:16:55.965Z,99.90
2022-07-26T22:19:23.052Z,99.90
2022-07-26T22:21:50.180Z,99.90
2022-07-26T22:24:17.271Z,99.90
2022-07-26T22:26:44.449Z,99.90
2022-07-26T22:29:11.835Z,99.90
2022-07-26T22:31:39.322Z,99.90
2022-07-26T22:34:06.441Z,99.90
2022-07-26T22:36:33.585Z,99.90
2022-07-26T22:39:07.299Z,99.90
2022-07-26T22:41:57.486Z,99.90
2022-07-26T22:44:23.360Z,99.90
2022-07-26T22:46:50.409Z,99.90
2022-07-26T22:49:17.719Z,99.90
2022-07-26T22:51:45.008Z,99.90
2022-07-26T22:54:12.278Z,99.90
2022-07-26T22:56:39.433Z,99.90
2022-07-26T22:59:06.572Z,99.90
2022-07-26T23:01:33.899Z,99.90
2022-07-26T23:04:01.063Z,99.90
2022-07-26T23:06:32.523Z,99.90
2022-07-26T23:08:59.745Z,99.90
2022-07-26T23:11:26.823Z,99.90
2022-07-26T23:13:58.921Z,99.90
2022-07-26T23:16:26.748Z,99.90
2022-07-26T23:18:54.011Z,99.90
2022-07-26T23:21:21.335Z,99.90
2022-07-26T23:23:48.497Z,99.90
2022-07-26T23:26:15.648Z,99.90
2022-07-26T23:28:42.819Z,99.90
2022-07-26T23:31:11.731Z,99.90
2022-07-26T23:33:51.415Z,99.90
2022-07-26T23:36:28.635Z,99.90
2022-07-26T23:38:57.381Z,99.90
2022-07-26T23:41:25.143Z,99.90
2022-07-26T23:43:53.001Z,99.90
2022-07-26T23:46:20.562Z,99.90
2022-07-26T23:48:47.983Z,99.90
2022-07-26T23:51:15.301Z,99.90
2022-07-26T23:53:42.754Z,99.90
2022-07-26T23:56:09.990Z,99.90
2022-07-26T23:58:37.740Z,99.90
